Time;durP1;ratioP1;P1;durP2;ratioP2;P2;SDS_P1;SDS_P2;PMS_P1;PMS_P2;Temp;Humidity;BMP_temperature;BMP_pressure;BME280_temperature;BME280_humidity;BME280_pressure;Samples;Min_cycle;Max_cycle;Signal;HPM_P1;HPM_P2
2021/08/09 00:01:55;;;;;;;;;;;;;;;24.24;48.95;101116.81;4991109;28;1237;-69
2021/08/09 00:04:22;;;;;;;;;;;;;;;24.25;48.88;101125.66;4991248;28;803;-70
2021/08/09 00:06:49;;;;;;;;;;;;;;;24.34;48.52;101117.00;4990886;28;1934;-70
2021/08/09 00:09:15;;;;;;;;;;;;;;;24.34;48.42;101122.31;4973660;28;811;-70
2021/08/09 00:11:42;;;;;;;;;;;;;;;24.15;49.02;101120.16;4973266;28;1340;-70
2021/08/09 00:14:09;;;;;;;;;;;;;;;24.21;48.60;101111.72;4990583;28;1213;-70
2021/08/09 00:16:36;;;;;;;;;;;;;;;24.23;48.41;101115.09;4990898;28;1249;-70
2021/08/09 00:19:03;;;;;;;;;;;;;;;24.37;48.23;101114.09;4990986;28;725;-69
2021/08/09 00:21:29;;;;;;;;;;;;;;;24.25;48.20;101115.88;4990734;28;1232;-70
2021/08/09 00:23:56;;;;;;;;;;;;;;;24.24;48.39;101108.84;4990811;28;1080;-68
2021/08/09 00:26:23;;;;;;;;;;;;;;;24.32;48.64;101106.44;4990824;28;1930;-70
2021/08/09 00:28:50;;;;;;;;;;;;;;;24.25;48.07;101102.56;4990598;28;1225;-69
2021/08/09 00:31:17;;;;;;;;;;;;;;;24.29;48.11;101105.81;4990697;28;1216;-69
2021/08/09 00:33:44;;;;;;;;;;;;;;;24.28;48.09;101105.00;4990531;28;1131;-69
2021/08/09 00:36:10;;;;;;;;;;;;;;;24.28;48.12;101105.00;4990509;28;1245;-69
2021/08/09 00:38:37;;;;;;;;;;;;;;;24.26;47.83;101104.22;4972892;28;1101;-68
2021/08/09 00:41:04;;;;;;;;;;;;;;;24.23;47.80;101093.81;4990227;28;1198;-68
2021/08/09 00:43:30;;;;;;;;;;;;;;;24.31;47.16;101098.59;4972484;28;1188;-69
2021/08/09 00:46:01;;;;;;;;;;;;;;;24.32;47.25;101100.25;4989362;28;1906;-69
2021/08/09 00:48:28;;;;;;;;;;;;;;;24.20;47.35;101096.72;4956636;28;1245;-70
2021/08/09 00:50:55;;;;;;;;;;;;;;;24.23;47.26;101098.28;4990462;28;1213;-70
2021/08/09 00:53:21;;;;;;;;;;;;;;;24.18;47.29;101095.13;4990723;28;1010;-68
2021/08/09 00:55:51;;;;;;;;;;;;;;;24.23;47.17;101091.16;4990019;28;1233;-68
2021/08/09 00:58:18;;;;;;;;;;;;;;;24.23;46.95;101088.50;4990470;28;1183;-69
2021/08/09 01:00:45;;;;;;;;;;;;;;;24.12;47.34;101088.44;4972498;28;1222;-69
2021/08/09 01:03:12;;;;;;;;;;;;;;;24.12;47.77;101087.59;4972380;28;1328;-69
2021/08/09 01:05:39;;;;;;;;;;;;;;;24.20;47.53;101093.19;4989527;28;1981;-69
2021/08/09 01:08:09;;;;;;;;;;;;;;;24.21;47.62;101094.91;4972632;28;1167;-69
2021/08/09 01:10:52;;;;;;;;;;;;;;;24.21;47.55;101092.22;4989797;28;1293;-68
2021/08/09 01:13:22;;;;;;;;;;;;;;;24.24;47.61;101084.88;4989682;28;1254;-68
2021/08/09 01:15:51;;;;;;;;;;;;;;;24.25;47.30;101080.41;4989721;28;1347;-67
2021/08/09 01:18:19;;;;;;;;;;;;;;;24.25;47.48;101077.75;4989910;28;1183;-68
2021/08/09 01:20:46;;;;;;;;;;;;;;;24.20;47.34;101072.75;4989397;28;1324;-67
2021/08/09 01:23:29;;;;;;;;;;;;;;;24.24;47.48;101078.69;4989587;28;1161;-68
2021/08/09 01:26:00;;;;;;;;;;;;;;;24.24;47.25;101076.88;4988900;28;1914;-67
2021/08/09 01:28:29;;;;;;;;;;;;;;;24.26;47.33;101068.78;4989952;28;858;-68
2021/08/09 01:30:56;;;;;;;;;;;;;;;24.22;47.25;101078.84;4989606;28;1360;-68
2021/08/09 01:33:25;;;;;;;;;;;;;;;24.16;47.54;101073.09;4989495;28;1434;-68
2021/08/09 01:35:53;;;;;;;;;;;;;;;24.25;47.11;101070.63;4972003;28;1231;-69
2021/08/09 01:38:21;;;;;;;;;;;;;;;24.26;47.43;101069.63;4989144;28;1197;-68
2021/08/09 01:40:48;;;;;;;;;;;;;;;24.23;47.31;101074.31;4989548;28;1241;-68
2021/08/09 01:43:15;;;;;;;;;;;;;;;24.23;47.08;101075.19;4989155;28;1144;-68
2021/08/09 01:45:42;;;;;;;;;;;;;;;24.21;47.42;101077.13;4971829;28;1942;-68
2021/08/09 01:48:10;;;;;;;;;;;;;;;24.16;47.24;101078.44;4989621;28;1169;-68
2021/08/09 01:50:36;;;;;;;;;;;;;;;24.09;47.50;101074.47;4989021;28;1290;-69
2021/08/09 01:53:03;;;;;;;;;;;;;;;24.16;47.35;101073.97;4989264;28;1138;-69
2021/08/09 01:55:30;;;;;;;;;;;;;;;24.15;47.23;101066.94;4988997;28;1223;-68
2021/08/09 01:57:57;;;;;;;;;;;;;;;24.16;47.04;101068.63;4989434;28;937;-69
2021/08/09 02:00:24;;;;;;;;;;;;;;;24.04;47.46;101069.53;4988810;28;1311;-68
2021/08/09 02:02:54;;;;;;;;;;;;;;;24.10;47.17;101071.72;4989234;28;1122;-68
2021/08/09 02:05:20;;;;;;;;;;;;;;;24.08;47.27;101065.66;4988703;28;1225;-68
2021/08/09 02:07:48;;;;;;;;;;;;;;;24.13;47.10;101068.00;4989111;28;1985;-68
2021/08/09 02:10:33;;;;;;;;;;;;;;;24.21;47.17;101071.78;4988760;28;1239;-68
2021/08/09 02:12:59;;;;;;;;;;;;;;;24.16;46.89;101068.63;4988644;28;1246;-68
2021/08/09 02:15:30;;;;;;;;;;;;;;;24.14;46.61;101075.88;4988547;28;1369;-70
2021/08/09 02:18:03;;;;;;;;;;;;;;;24.17;46.83;101074.78;4988641;28;1058;-69
2021/08/09 02:20:34;;;;;;;;;;;;;;;24.07;46.80;101069.28;4988883;28;1382;-67
2021/08/09 02:23:03;;;;;;;;;;;;;;;24.13;46.52;101070.69;4988915;28;929;-67
2021/08/09 02:25:32;;;;;;;;;;;;;;;24.18;46.48;101066.69;4988585;28;1320;-69
2021/08/09 02:28:02;;;;;;;;;;;;;;;24.03;46.44;101069.63;4988780;28;1902;-68
2021/08/09 02:30:29;;;;;;;;;;;;;;;24.10;46.34;101070.88;4988678;28;1209;-68
2021/08/09 02:32:58;;;;;;;;;;;;;;;24.11;46.18;101070.78;4988949;28;1170;-68
2021/08/09 02:35:26;;;;;;;;;;;;;;;24.13;46.09;101076.00;4988439;28;1291;-68
2021/08/09 02:37:53;;;;;;;;;;;;;;;24.16;46.06;101070.44;4988762;28;1139;-68
2021/08/09 02:40:20;;;;;;;;;;;;;;;24.19;46.00;101079.06;4970802;28;1634;-68
2021/08/09 02:42:47;;;;;;;;;;;;;;;24.15;46.29;101076.72;4988597;28;1145;-68
2021/08/09 02:45:15;;;;;;;;;;;;;;;24.16;46.02;101071.31;4987863;28;1300;-68
2021/08/09 02:47:42;;;;;;;;;;;;;;;24.19;45.64;101068.41;4988172;28;1980;-67
2021/08/09 02:50:10;;;;;;;;;;;;;;;24.16;45.78;101071.31;4988382;28;1222;-68
2021/08/09 02:52:38;;;;;;;;;;;;;;;23.94;46.29;101065.84;4988518;28;1273;-69
2021/08/09 02:55:07;;;;;;;;;;;;;;;24.04;46.20;101071.31;4988237;28;1300;-68
2021/08/09 02:57:34;;;;;;;;;;;;;;;24.10;46.04;101069.06;4970913;28;1081;-68
2021/08/09 03:00:01;;;;;;;;;;;;;;;24.12;45.99;101063.66;4988169;28;1209;-69
2021/08/09 03:02:29;;;;;;;;;;;;;;;24.03;45.90;101057.16;4988416;28;1122;-69
2021/08/09 03:04:57;;;;;;;;;;;;;;;24.10;46.02;101054.91;4970577;28;1335;-69
2021/08/09 03:07:25;;;;;;;;;;;;;;;23.96;46.08;101053.25;4970525;28;1914;-69
2021/08/09 03:09:51;;;;;;;;;;;;;;;23.94;46.29;101052.53;4988137;28;1233;-69
2021/08/09 03:12:18;;;;;;;;;;;;;;;23.96;46.34;101050.59;4987985;28;1192;-69
2021/08/09 03:14:50;;;;;;;;;;;;;;;23.87;46.49;101044.16;4988179;28;1198;-69
2021/08/09 03:17:17;;;;;;;;;;;;;;;23.93;46.33;101046.34;4988369;28;973;-68
2021/08/09 03:19:43;;;;;;;;;;;;;;;23.96;46.27;101039.94;4987937;28;1201;-68
2021/08/09 03:22:10;;;;;;;;;;;;;;;23.89;46.47;101038.72;4988422;28;1037;-67
2021/08/09 03:24:37;;;;;;;;;;;;;;;23.97;46.40;101035.47;4987952;28;1276;-68
2021/08/09 03:27:04;;;;;;;;;;;;;;;23.97;46.13;101031.00;4987858;28;1903;-69
2021/08/09 03:29:31;;;;;;;;;;;;;;;24.04;46.18;101039.41;4987794;28;918;-68
2021/08/09 03:31:57;;;;;;;;;;;;;;;23.90;46.24;101035.94;4988156;28;1304;-69
2021/08/09 03:34:24;;;;;;;;;;;;;;;23.93;46.22;101037.50;4988274;28;772;-69
2021/08/09 03:36:52;;;;;;;;;;;;;;;23.98;46.14;101031.88;4987819;28;1233;-69
2021/08/09 03:39:19;;;;;;;;;;;;;;;24.02;46.03;101034.16;4969625;28;1461;-69
2021/08/09 03:41:46;;;;;;;;;;;;;;;24.01;46.21;101034.31;4987898;28;1200;-69
2021/08/09 03:44:13;;;;;;;;;;;;;;;24.05;46.01;101033.94;4988090;28;1089;-68
2021/08/09 03:46:40;;;;;;;;;;;;;;;24.14;45.76;101037.75;4988389;28;1983;-67
2021/08/09 03:49:10;;;;;;;;;;;;;;;24.02;45.93;101046.63;4991381;28;958;-68
2021/08/09 03:51:37;;;;;;;;;;;;;;;23.97;45.96;101051.44;4991200;28;1221;-69
2021/08/09 03:54:04;;;;;;;;;;;;;;;23.97;46.04;101051.44;4973908;28;796;-69
2021/08/09 03:56:31;;;;;;;;;;;;;;;23.99;45.78;101053.03;4991130;28;1210;-69
2021/08/09 03:58:58;;;;;;;;;;;;;;;23.95;45.90;101054.25;4973478;28;1062;-67
2021/08/09 04:01:26;;;;;;;;;;;;;;;24.01;45.81;101056.44;4991101;28;1197;-68
2021/08/09 04:03:53;;;;;;;;;;;;;;;24.01;45.67;101056.44;4973627;28;1076;-68
2021/08/09 04:06:21;;;;;;;;;;;;;;;24.00;45.63;101045.91;4991213;28;1906;-69
2021/08/09 04:08:49;;;;;;;;;;;;;;;23.99;45.71;101054.84;4991074;28;1140;-69
2021/08/09 04:11:16;;;;;;;;;;;;;;;24.03;45.67;101051.84;4990772;28;1229;-69
2021/08/09 04:13:42;;;;;;;;;;;;;;;24.01;45.40;101048.47;4990756;28;1327;-69
2021/08/09 04:16:09;;;;;;;;;;;;;;;23.87;45.68;101046.81;4990899;28;1226;-69
2021/08/09 04:18:36;;;;;;;;;;;;;;;23.75;46.05;101041.53;4990642;28;740;-69
2021/08/09 04:21:03;;;;;;;;;;;;;;;23.94;45.74;101053.38;4990859;28;1221;-68
2021/08/09 04:23:29;;;;;;;;;;;;;;;24.05;45.36;101044.59;4990678;28;1135;-68
2021/08/09 04:25:56;;;;;;;;;;;;;;;24.03;45.27;101051.84;4990628;28;1317;-68
2021/08/09 04:28:23;;;;;;;;;;;;;;;23.93;45.54;101045.50;4990916;28;1989;-68
2021/08/09 04:30:49;;;;;;;;;;;;;;;24.00;45.48;101056.53;4990443;28;1220;-68
2021/08/09 04:33:16;;;;;;;;;;;;;;;24.00;45.25;101054.72;4973377;28;1305;-68
2021/08/09 04:35:57;;;;;;;;;;;;;;;23.99;45.15;101050.38;4990423;28;1261;-68
2021/08/09 04:38:24;;;;;;;;;;;;;;;24.01;45.17;101055.59;4973212;28;1084;-68
2021/08/09 04:40:51;;;;;;;;;;;;;;;24.00;45.25;101057.41;4973226;28;1237;-69
2021/08/09 04:43:18;;;;;;;;;;;;;;;23.95;45.27;101054.25;4990883;28;1164;-69
2021/08/09 04:45:45;;;;;;;;;;;;;;;23.84;45.64;101051.50;4990438;28;1237;-68
2021/08/09 04:48:12;;;;;;;;;;;;;;;23.82;45.65;101054.28;4972723;28;1935;-69
2021/08/09 04:50:39;;;;;;;;;;;;;;;23.87;45.57;101051.28;4989984;28;1226;-68
2021/08/09 04:53:09;;;;;;;;;;;;;;;23.98;45.39;101058.47;4989719;28;1053;-68
2021/08/09 04:55:36;;;;;;;;;;;;;;;23.97;45.24;101060.28;4990197;28;1345;-69
2021/08/09 04:58:04;;;;;;;;;;;;;;;24.00;45.04;101054.72;4990515;28;1139;-69
2021/08/09 05:00:31;;;;;;;;;;;;;;;23.97;45.16;101062.94;4989088;28;1234;-69
2021/08/09 05:02:58;;;;;;;;;;;;;;;23.74;45.54;101059.28;4990463;28;1089;-69
2021/08/09 05:05:24;;;;;;;;;;;;;;;23.92;45.46;101065.09;4990092;28;1333;-68
2021/08/09 05:07:54;;;;;;;;;;;;;;;23.85;45.54;101063.84;4990299;28;1914;-69
2021/08/09 05:10:25;;;;;;;;;;;;;;;23.93;45.40;101066.78;4989863;28;1316;-68
2021/08/09 05:12:52;;;;;;;;;;;;;;;23.95;45.18;101070.19;4990055;28;1376;-68
2021/08/09 05:15:21;;;;;;;;;;;;;;;23.97;45.16;101070.06;4989687;28;1281;-68
2021/08/09 05:17:47;;;;;;;;;;;;;;;23.83;45.34;101063.13;4990012;28;1116;-68
2021/08/09 05:20:15;;;;;;;;;;;;;;;23.87;45.57;101061.91;4989454;28;1245;-68
2021/08/09 05:22:41;;;;;;;;;;;;;;;23.87;45.42;101051.28;4989753;28;1247;-69
2021/08/09 05:25:10;;;;;;;;;;;;;;;23.94;45.26;101053.38;4989174;28;1194;-69
2021/08/09 05:27:37;;;;;;;;;;;;;;;23.95;45.38;101048.91;4989215;28;1914;-68
2021/08/09 05:30:05;;;;;;;;;;;;;;;23.95;45.39;101051.56;4989336;28;1221;-69
2021/08/09 05:32:32;;;;;;;;;;;;;;;23.76;45.72;101052.06;4989793;28;1070;-69
2021/08/09 05:34:59;;;;;;;;;;;;;;;23.86;45.34;101058.41;4989773;28;1312;-69
2021/08/09 05:37:26;;;;;;;;;;;;;;;23.89;45.44;101060.00;4989625;28;1150;-69
2021/08/09 05:39:55;;;;;;;;;;;;;;;23.81;45.81;101062.38;4970719;28;1558;-68
2021/08/09 05:42:22;;;;;;;;;;;;;;;23.88;45.62;101074.25;4954567;28;1101;-77
2021/08/09 05:44:48;;;;;;;;;;;;;;;23.86;45.63;101071.69;4949861;28;1320;-78
2021/08/09 05:47:15;;;;;;;;;;;;;;;23.90;45.88;101069.66;4932189;29;1910;-77
2021/08/09 05:49:42;;;;;;;;;;;;;;;23.90;45.72;101062.53;4949468;28;1233;-79
2021/08/09 05:52:17;;;;;;;;;;;;;;;23.91;45.87;101058.94;4932634;29;1123;-77
2021/08/09 05:54:44;;;;;;;;;;;;;;;23.91;45.80;101052.75;4932604;29;1281;-75
2021/08/09 05:57:11;;;;;;;;;;;;;;;23.93;45.66;101057.00;4949411;28;1586;-73
2021/08/09 05:59:38;;;;;;;;;;;;;;;23.94;45.90;101042.75;4948280;29;1287;-77
2021/08/09 06:02:05;;;;;;;;;;;;;;;23.97;45.68;101046.97;4949779;28;1049;-77
2021/08/09 06:04:32;;;;;;;;;;;;;;;23.96;45.80;101042.59;4949587;28;886;-73
2021/08/09 06:06:59;;;;;;;;;;;;;;;23.95;45.92;101043.59;4950214;29;1903;-76
2021/08/09 06:09:26;;;;;;;;;;;;;;;23.97;45.84;101041.66;4949890;29;718;-72
2021/08/09 06:11:53;;;;;;;;;;;;;;;23.96;45.97;101037.28;4949244;28;1242;-71
2021/08/09 06:14:20;;;;;;;;;;;;;;;23.98;46.11;101040.69;4931468;29;1222;-78
2021/08/09 06:16:48;;;;;;;;;;;;;;;24.00;45.99;101056.53;4931920;29;1327;-75
2021/08/09 06:19:15;;;;;;;;;;;;;;;24.01;45.94;101055.59;4948814;28;1001;-75
2021/08/09 06:21:42;;;;;;;;;;;;;;;23.99;46.13;101050.38;4949163;29;1385;-75
2021/08/09 06:24:08;;;;;;;;;;;;;;;24.01;46.36;101058.25;4933289;28;1545;-72
2021/08/09 06:26:35;;;;;;;;;;;;;;;23.96;46.35;101066.56;4968863;28;1249;-73
2021/08/09 06:29:02;;;;;;;;;;;;;;;23.99;46.39;101065.47;4969020;28;1906;-73
2021/08/09 06:31:28;;;;;;;;;;;;;;;24.00;46.45;101065.38;4969869;28;1226;-72
2021/08/09 06:33:55;;;;;;;;;;;;;;;23.99;46.40;101063.66;4969250;28;819;-71
2021/08/09 06:36:22;;;;;;;;;;;;;;;24.02;46.55;101082.06;4968935;28;1301;-69
2021/08/09 06:38:48;;;;;;;;;;;;;;;24.04;46.38;101082.81;4935385;28;1236;-71
2021/08/09 06:41:19;;;;;;;;;;;;;;;24.05;46.36;101087.16;4968533;28;1249;-70
2021/08/09 06:43:46;;;;;;;;;;;;;;;24.08;46.35;101078.09;4951727;28;780;-70
2021/08/09 06:46:13;;;;;;;;;;;;;;;24.12;46.15;101079.63;4968748;28;1343;-72
2021/08/09 06:48:40;;;;;;;;;;;;;;;24.11;46.29;101076.09;4967882;28;1907;-73
2021/08/09 06:51:07;;;;;;;;;;;;;;;24.12;46.16;101088.44;4968593;28;1214;-72
2021/08/09 06:53:34;;;;;;;;;;;;;;;24.14;45.87;101083.84;4951350;28;791;-73
2021/08/09 06:56:00;;;;;;;;;;;;;;;24.17;46.11;101088.94;4951545;28;1313;-74
2021/08/09 06:58:27;;;;;;;;;;;;;;;24.19;45.48;101089.72;4968645;28;1318;-74
2021/08/09 07:00:54;;;;;;;;;;;;;;;24.22;45.98;101084.16;4951567;28;1210;-74
2021/08/09 07:03:21;;;;;;;;;;;;;;;24.34;45.76;101087.69;4951300;28;1281;-72
2021/08/09 07:05:47;;;;;;;;;;;;;;;24.31;45.87;101078.13;4968836;28;1218;-72
2021/08/09 07:08:14;;;;;;;;;;;;;;;24.31;45.73;101071.97;4969105;28;1981;-71
2021/08/09 07:10:43;;;;;;;;;;;;;;;24.27;45.57;101074.00;4969084;28;1354;-73
2021/08/09 07:13:09;;;;;;;;;;;;;;;24.31;45.53;101070.16;4968925;28;1199;-69
2021/08/09 07:15:36;;;;;;;;;;;;;;;24.34;44.20;101066.41;4968774;28;1327;-69
2021/08/09 07:18:03;;;;;;;;;;;;;;;24.34;43.75;101072.59;4969778;28;1176;-69
2021/08/09 07:20:30;;;;;;;;;;;;;;;24.41;44.22;101083.59;4969022;28;1233;-69
2021/08/09 07:22:56;;;;;;;;;;;;;;;24.52;43.54;101106.75;4970458;28;1080;-76
2021/08/09 07:25:23;;;;;;;;;;;;;;;24.46;43.07;101111.59;4970267;28;1790;-79
2021/08/09 07:27:50;;;;;;;;;;;;;;;24.42;43.25;101104.78;4970992;28;1971;-76
2021/08/09 07:30:18;;;;;;;;;;;;;;;24.43;43.46;101097.66;4970940;28;1351;-74
2021/08/09 07:32:48;;;;;;;;;;;;;;;24.45;43.42;101093.91;4953267;28;1160;-77
2021/08/09 07:35:15;;;;;;;;;;;;;;;24.42;42.62;101094.16;4953227;28;1242;-77
2021/08/09 07:37:42;;;;;;;;;;;;;;;24.47;42.90;101088.47;4970814;28;975;-76
2021/08/09 07:40:08;;;;;;;;;;;;;;;24.46;42.87;101082.31;4952569;28;1265;-78
2021/08/09 07:42:35;;;;;;;;;;;;;;;24.47;42.63;101083.97;4971317;28;1203;-77
2021/08/09 07:45:03;;;;;;;;;;;;;;;24.49;42.51;101081.22;4970867;28;1336;-74
2021/08/09 07:47:30;;;;;;;;;;;;;;;24.50;42.70;101088.22;4952458;28;1910;-71
2021/08/09 07:49:57;;;;;;;;;;;;;;;24.52;42.87;101061.50;4970392;28;1225;-73
2021/08/09 07:52:23;;;;;;;;;;;;;;;24.51;42.42;101052.66;4953023;28;1139;-75
2021/08/09 07:54:50;;;;;;;;;;;;;;;24.51;42.38;101059.78;4970579;28;1197;-70
2021/08/09 07:57:26;;;;;;;;;;;;;;;24.52;42.52;101064.16;4971229;28;922;-75
2021/08/09 07:59:54;;;;;;;;;;;;;;;24.61;43.39;101079.44;4937355;28;1343;-69
2021/08/09 08:02:20;;;;;;;;;;;;;;;24.62;43.11;101086.47;4953230;28;1089;-72
2021/08/09 08:04:47;;;;;;;;;;;;;;;24.66;43.23;101077.25;4953150;28;1262;-69
2021/08/09 08:07:14;;;;;;;;;;;;;;;24.71;43.73;101115.06;4952744;28;1178;-68
2021/08/09 08:09:41;;;;;;;;;;;;;;;24.64;42.76;101140.47;4969411;28;1902;-69
2021/08/09 08:12:08;;;;;;;;;;;;;;;24.63;43.07;101157.41;4969855;28;1339;-68
2021/08/09 08:14:34;;;;;;;;;;;;;;;24.63;43.47;101154.72;4987025;28;1060;-68
2021/08/09 08:17:01;;;;;;;;;;;;;;;24.62;43.54;101153.91;4989247;28;1024;-67
2021/08/09 08:19:28;;;;;;;;;;;;;;;24.62;43.47;101145.06;4989040;28;1170;-68
2021/08/09 08:21:55;;;;;;;;;;;;;;;24.62;43.87;101105.97;4989176;28;1174;-71
2021/08/09 08:24:22;;;;;;;;;;;;;;;24.67;45.29;101070.97;4988775;28;1113;-68
2021/08/09 08:26:48;;;;;;;;;;;;;;;24.62;46.63;101119.28;4989023;28;1162;-68
2021/08/09 08:29:15;;;;;;;;;;;;;;;24.60;46.93;101141.66;4988943;28;1902;-69
2021/08/09 08:31:42;;;;;;;;;;;;;;;24.65;47.12;101120.88;4971752;28;1260;-70
2021/08/09 08:34:09;;;;;;;;;;;;;;;24.61;47.45;101100.75;4986918;28;1179;-70
2021/08/09 08:36:36;;;;;;;;;;;;;;;24.67;47.53;101126.91;4971349;28;1275;-68
2021/08/09 08:39:03;;;;;;;;;;;;;;;24.62;48.19;101182.34;4988712;28;1144;-69
2021/08/09 08:41:30;;;;;;;;;;;;;;;24.63;47.87;101144.09;4988563;28;1310;-66
2021/08/09 08:43:57;;;;;;;;;;;;;;;24.70;48.06;101071.59;4988988;28;1073;-68
2021/08/09 08:46:24;;;;;;;;;;;;;;;24.72;47.83;101048.34;4970543;28;1178;-69
2021/08/09 08:48:54;;;;;;;;;;;;;;;24.67;48.05;101134.91;4980228;28;1984;-71
2021/08/09 08:51:24;;;;;;;;;;;;;;;24.61;47.91;101151.34;4969571;28;1391;-71
2021/08/09 08:53:51;;;;;;;;;;;;;;;24.56;47.61;101103.78;4970124;28;1253;-70
2021/08/09 08:56:18;;;;;;;;;;;;;;;24.62;47.75;101065.16;4987966;28;1162;-72
2021/08/09 08:58:44;;;;;;;;;;;;;;;24.61;47.74;101106.06;4989027;28;1130;-71
2021/08/09 09:01:31;;;;;;;;;;;;;;;24.58;47.95;101125.78;4989950;28;1328;-71
2021/08/09 09:03:58;;;;;;;;;;;;;;;24.60;47.86;101131.84;4989821;28;819;-71
2021/08/09 09:06:25;;;;;;;;;;;;;;;24.60;47.86;101146.97;4989726;28;1331;-72
2021/08/09 09:08:52;;;;;;;;;;;;;;;24.56;47.14;101169.50;4972395;28;1916;-71
2021/08/09 09:11:19;;;;;;;;;;;;;;;24.60;47.21;101190.44;4989764;28;1307;-71
2021/08/09 09:13:56;;;;;;;;;;;;;;;24.61;47.47;101185.97;4989587;28;1332;-74
2021/08/09 09:16:25;;;;;;;;;;;;;;;24.62;47.85;101204.53;4989569;28;1269;-69
2021/08/09 09:18:55;;;;;;;;;;;;;;;24.64;47.56;101228.38;4971810;28;1332;-71
2021/08/09 09:21:36;;;;;;;;;;;;;;;24.65;46.46;101204.28;4989388;28;1241;-71
2021/08/09 09:24:14;;;;;;;;;;;;;;;24.65;47.34;101142.16;4989635;28;775;-72
2021/08/09 09:26:42;;;;;;;;;;;;;;;24.62;47.33;101153.91;4989439;28;1296;-72
2021/08/09 09:29:15;;;;;;;;;;;;;;;24.65;47.72;101171.47;4971648;28;1902;-72
2021/08/09 09:31:44;;;;;;;;;;;;;;;24.66;47.48;101191.78;4971755;28;1207;-71
2021/08/09 09:34:13;;;;;;;;;;;;;;;24.66;47.14;101253.91;4989615;28;917;-73
2021/08/09 09:36:44;;;;;;;;;;;;;;;24.66;47.19;101245.06;4989312;28;1209;-73
2021/08/09 09:39:30;;;;;;;;;;;;;;;24.65;47.23;101230.94;4989273;28;772;-72
2021/08/09 09:41:58;;;;;;;;;;;;;;;24.70;47.42;101212.78;4971361;28;1233;-73
2021/08/09 09:44:27;;;;;;;;;;;;;;;24.67;47.24;101130.44;4988782;28;818;-73
2021/08/09 09:47:24;;;;;;;;;;;;;;;24.65;47.32;101054.28;4954518;28;1233;-73
2021/08/09 09:49:52;;;;;;;;;;;;;;;24.72;47.45;101044.81;4935701;28;1914;-72
2021/08/09 09:52:28;;;;;;;;;;;;;;;24.71;47.23;101104.41;4971189;28;987;-71
2021/08/09 09:54:56;;;;;;;;;;;;;;;24.71;47.08;101139.91;4969150;28;1447;-75
2021/08/09 09:57:24;;;;;;;;;;;;;;;24.75;46.82;101173.31;4951123;28;1168;-76
2021/08/09 09:59:50;;;;;;;;;;;;;;;24.74;47.07;101181.44;4952052;28;1710;-77
2021/08/09 10:02:17;;;;;;;;;;;;;;;24.72;46.61;101167.34;4951033;28;1367;-76
2021/08/09 10:04:44;;;;;;;;;;;;;;;24.70;46.33;101153.31;4950047;28;1276;-76
2021/08/09 10:07:12;;;;;;;;;;;;;;;24.71;46.14;101155.03;4951575;28;1456;-74
2021/08/09 10:09:39;;;;;;;;;;;;;;;24.72;46.17;101151.38;4968868;28;1977;-76
2021/08/09 10:12:12;;;;;;;;;;;;;;;24.71;46.06;101190.50;4951383;28;1438;-76
2021/08/09 10:14:39;;;;;;;;;;;;;;;24.74;45.89;101184.94;4951712;28;1417;-74
2021/08/09 10:17:08;;;;;;;;;;;;;;;24.73;45.94;101196.56;4968773;28;1144;-74
2021/08/09 10:19:35;;;;;;;;;;;;;;;24.80;46.22;101211.13;4966525;28;1683;-70
2021/08/09 10:22:02;;;;;;;;;;;;;;;24.85;45.85;101209.00;4967427;28;1227;-72
2021/08/09 10:24:38;;;;;;;;;;;;;;;24.85;46.67;101161.03;4950184;28;1443;-73
2021/08/09 10:27:05;;;;;;;;;;;;;;;24.86;46.58;101177.88;4967681;28;1101;-72
2021/08/09 10:29:31;;;;;;;;;;;;;;;24.88;46.61;101199.91;4967401;28;2017;-66
2021/08/09 10:32:18;;;;;;;;;;;;;;;24.86;46.44;101194.72;4967753;28;1313;-66
2021/08/09 10:34:44;;;;;;;;;;;;;;;24.87;46.36;101198.19;4965230;28;1555;-69
2021/08/09 10:37:23;;;;;;;;;;;;;;;24.95;47.53;101252.66;4963032;28;1139;-72
2021/08/09 10:40:13;;;;;;;;;;;;;;;25.01;47.49;101251.34;4949742;28;1283;-71
2021/08/09 10:42:40;;;;;;;;;;;;;;;24.90;46.74;101182.84;4966775;28;1319;-74
2021/08/09 10:45:09;;;;;;;;;;;;;;;24.87;46.64;101103.13;4967132;28;1202;-75
2021/08/09 10:47:45;;;;;;;;;;;;;;;24.88;47.11;101134.16;4967568;28;1073;-73
2021/08/09 10:50:30;;;;;;;;;;;;;;;24.87;46.88;101092.47;4968831;28;1993;-71
2021/08/09 10:52:58;;;;;;;;;;;;;;;24.90;47.00;101152.66;4969188;28;925;-73
2021/08/09 10:55:31;;;;;;;;;;;;;;;24.95;47.41;101243.81;4967380;28;1328;-69
2021/08/09 10:58:04;;;;;;;;;;;;;;;24.92;47.13;101169.41;4938194;28;1221;-73
2021/08/09 11:00:40;;;;;;;;;;;;;;;24.90;47.50;101102.03;4977500;28;1226;-71
2021/08/09 11:03:10;;;;;;;;;;;;;;;24.93;47.39;101158.63;4992130;28;1130;-69
2021/08/09 11:05:37;;;;;;;;;;;;;;;24.93;47.83;101190.59;4991528;28;1244;-72
2021/08/09 11:08:17;;;;;;;;;;;;;;;24.91;47.66;101168.56;4974106;28;1180;-68
2021/08/09 11:10:55;;;;;;;;;;;;;;;24.88;47.71;101192.78;4983985;28;1568;-72
2021/08/09 11:13:23;;;;;;;;;;;;;;;24.94;47.59;101255.41;4972240;28;1400;-68
2021/08/09 11:15:55;;;;;;;;;;;;;;;24.95;48.14;101243.81;4979929;28;1758;-69
2021/08/09 11:18:22;;;;;;;;;;;;;;;24.95;47.84;101195.81;4969682;28;1196;-72
2021/08/09 11:21:00;;;;;;;;;;;;;;;24.95;47.51;101180.69;4951901;28;1314;-73
2021/08/09 11:23:34;;;;;;;;;;;;;;;24.93;46.27;101185.28;4951802;28;1185;-68
2021/08/09 11:26:00;;;;;;;;;;;;;;;24.94;46.69;101192.31;4951583;28;1257;-68
2021/08/09 11:28:27;;;;;;;;;;;;;;;24.95;46.21;101206.50;4969563;28;1914;-70
2021/08/09 11:30:55;;;;;;;;;;;;;;;24.96;46.74;101192.19;4970378;28;1237;-68
2021/08/09 11:33:25;;;;;;;;;;;;;;;25.04;47.83;101179.13;4952843;28;1329;-72
2021/08/09 11:35:53;;;;;;;;;;;;;;;25.04;47.70;101188.94;4970539;28;1257;-73
2021/08/09 11:38:21;;;;;;;;;;;;;;;25.02;46.75;101199.69;4970875;28;1184;-74
2021/08/09 11:40:50;;;;;;;;;;;;;;;24.99;46.40;101197.28;4970441;28;1282;-72
2021/08/09 11:43:27;;;;;;;;;;;;;;;24.99;46.80;101187.47;4971117;28;1261;-75
2021/08/09 11:45:56;;;;;;;;;;;;;;;24.98;47.30;101185.78;4970998;28;1347;-72
2021/08/09 11:48:24;;;;;;;;;;;;;;;25.02;46.91;101192.56;4953228;28;1910;-73
2021/08/09 11:50:54;;;;;;;;;;;;;;;25.08;47.21;101185.09;4951630;28;1305;-71
2021/08/09 11:53:46;;;;;;;;;;;;;;;25.09;47.88;101178.78;4986862;28;1115;-73
2021/08/09 11:56:14;;;;;;;;;;;;;;;25.14;48.39;101177.44;4990039;28;1316;-67
2021/08/09 11:58:41;;;;;;;;;;;;;;;25.18;48.58;101175.41;4990113;28;783;-71
2021/08/09 12:01:08;;;;;;;;;;;;;;;25.21;48.32;101178.69;4989630;28;1279;-72
2021/08/09 12:03:35;;;;;;;;;;;;;;;25.19;48.70;101175.28;4989427;28;780;-71
2021/08/09 12:06:21;;;;;;;;;;;;;;;25.18;48.98;101173.56;4989899;28;1281;-72
2021/08/09 12:08:48;;;;;;;;;;;;;;;25.17;48.96;101173.72;4986781;28;1910;-69
2021/08/09 12:11:15;;;;;;;;;;;;;;;25.19;49.15;101177.97;4966377;28;1269;-69
2021/08/09 12:13:43;;;;;;;;;;;;;;;25.22;48.71;101175.06;4989413;28;1217;-68
2021/08/09 12:16:14;;;;;;;;;;;;;;;25.24;49.23;101177.59;4971831;28;1336;-67
2021/08/09 12:18:52;;;;;;;;;;;;;;;25.24;49.10;101182.91;4989508;28;1068;-68
2021/08/09 12:21:19;;;;;;;;;;;;;;;25.22;49.12;101177.72;4989518;28;1209;-68
2021/08/09 12:23:50;;;;;;;;;;;;;;;25.23;49.52;101160.72;4989301;28;1288;-68
2021/08/09 12:26:35;;;;;;;;;;;;;;;25.25;49.06;101161.47;4985332;28;1363;-68
2021/08/09 12:29:07;;;;;;;;;;;;;;;25.25;49.12;101161.47;4971915;28;1985;-70
2021/08/09 12:31:47;;;;;;;;;;;;;;;25.26;49.40;101160.50;4971797;28;1265;-70
2021/08/09 12:34:16;;;;;;;;;;;;;;;25.25;49.14;101153.47;4971859;28;1387;-71
2021/08/09 12:36:43;;;;;;;;;;;;;;;25.27;48.82;101148.88;4989184;28;1300;-69
2021/08/09 12:39:10;;;;;;;;;;;;;;;25.29;48.67;101144.25;4988731;28;1128;-72
2021/08/09 12:41:37;;;;;;;;;;;;;;;25.31;48.74;101141.47;4988275;28;1261;-73
2021/08/09 12:44:05;;;;;;;;;;;;;;;25.29;48.55;101133.59;4971159;28;1209;-70
2021/08/09 12:46:32;;;;;;;;;;;;;;;25.29;48.76;101136.25;4988784;28;1209;-68
2021/08/09 12:48:59;;;;;;;;;;;;;;;25.29;49.13;101133.59;4971953;28;1974;-67
2021/08/09 12:51:27;;;;;;;;;;;;;;;25.30;49.21;101140.63;4988797;28;1229;-65
2021/08/09 12:53:53;;;;;;;;;;;;;;;25.31;48.88;101129.00;4971646;28;1085;-66
2021/08/09 12:56:20;;;;;;;;;;;;;;;25.29;49.06;101130.94;4988150;28;1225;-66